Time;durP1;ratioP1;P1;durP2;ratioP2;P2;SDS_P1;SDS_P2;PMS_P1;PMS_P2;Temp;Humidity;BMP_temperature;BMP_pressure;BME280_temperature;BME280_humidity;BME280_pressure;Samples;Min_cycle;Max_cycle;Signal;HPM_P1;HPM_P2
2022/01/27 00:05:17;;;;;;;2.53;2.30;;;0.50;93.00;-0.50;99551.00;;;;5110487;28;20210;-79
2022/01/27 00:07:45;;;;;;;1.40;1.40;;;0.60;92.50;-0.50;99551.00;;;;5114734;28;20194;-76
2022/01/27 00:10:23;;;;;;;3.10;2.90;;;0.50;92.70;-0.50;99528.00;;;;5114707;28;20209;-78
2022/01/27 00:12:51;;;;;;;3.43;2.57;;;0.50;92.90;-0.60;99541.00;;;;5114726;28;20201;-76
2022/01/27 00:15:28;;;;;;;2.70;2.20;;;0.40;92.70;-0.50;99534.00;;;;5114747;28;20205;-79
2022/01/27 00:18:00;;;;;;;3.93;3.53;;;0.50;93.30;-0.60;99546.00;;;;5114750;28;20241;-78
2022/01/27 00:20:28;;;;;;;4.00;2.27;;;0.40;93.10;-0.70;99527.00;;;;5114610;28;20205;-78
2022/01/27 00:22:57;;;;;;;1.77;1.67;;;0.40;93.40;-0.60;99530.00;;;;5114436;28;20281;-78
2022/01/27 00:25:25;;;;;;;8.17;2.13;;;0.40;93.50;-0.60;99524.00;;;;5114597;28;20230;-78
2022/01/27 00:27:52;;;;;;;2.07;1.87;;;0.40;92.80;-0.60;99526.00;;;;5114340;28;20229;-78
2022/01/27 00:30:18;;;;;;;4.53;2.37;;;0.40;93.40;-0.70;99527.00;;;;5114460;28;20272;-78
2022/01/27 00:32:45;;;;;;;2.83;2.63;;;0.40;93.40;-0.70;99523.00;;;;5114479;28;20641;-78
2022/01/27 00:35:14;;;;;;;1.93;1.83;;;0.30;93.40;-0.60;99524.00;;;;5114553;28;20224;-78
2022/01/27 00:37:41;;;;;;;1.03;1.03;;;0.40;94.10;-0.60;99515.00;;;;5114602;28;20329;-79
2022/01/27 00:40:11;;;;;;;3.13;2.83;;;0.40;93.40;-0.50;99516.00;;;;5114511;28;20242;-79
2022/01/27 00:42:38;;;;;;;1.63;1.60;;;0.40;93.60;-0.50;99515.00;;;;5114371;28;20213;-78
2022/01/27 00:45:05;;;;;;;2.23;2.10;;;0.40;93.40;-0.50;99519.00;;;;5114469;28;20231;-78
2022/01/27 00:47:32;;;;;;;2.23;2.13;;;0.50;93.30;-0.60;99518.00;;;;5113873;28;20833;-79
2022/01/27 00:49:59;;;;;;;3.33;2.83;;;0.40;92.80;-0.60;99515.00;;;;5114301;28;20226;-78
2022/01/27 00:52:32;;;;;;;1.23;1.23;;;0.40;93.40;-0.60;99522.00;;;;5114396;28;20285;-78
2022/01/27 00:54:59;;;;;;;2.83;1.73;;;0.40;93.00;-0.60;99526.00;;;;5114214;28;20190;-78
2022/01/27 00:57:37;;;;;;;2.63;1.83;;;0.40;92.80;-0.50;99517.00;;;;5114133;28;20214;-78
2022/01/27 01:00:08;;;;;;;2.90;2.67;;;0.50;93.10;-0.30;99530.00;;;;5114264;28;20194;-77
2022/01/27 01:02:44;;;;;;;3.57;3.27;;;0.50;93.20;-0.40;99531.00;;;;5114030;28;20255;-78
2022/01/27 01:05:28;;;;;;;7.20;2.80;;;0.60;93.10;-0.40;99527.00;;;;5114173;28;20211;-79
2022/01/27 01:08:07;;;;;;;1.60;1.53;;;0.60;92.60;-0.50;99523.00;;;;5113967;28;20221;-78
2022/01/27 01:16:24;;;;;;;2.57;2.47;;;0.50;92.70;-0.50;99510.00;;;;5117398;28;20224;-78
2022/01/27 01:18:58;;;;;;;16.93;3.00;;;0.50;92.80;-0.20;99519.00;;;;5117682;28;20232;-78
2022/01/27 01:21:42;;;;;;;2.53;2.30;;;0.70;92.00;-0.30;99517.00;;;;5117631;28;20532;-78
2022/01/27 01:29:54;;;;;;;1.60;1.50;;;0.60;91.70;-0.30;99523.00;;;;5117315;28;20222;-78
2022/01/27 01:32:36;;;;;;;2.13;1.97;;;0.60;91.50;-0.40;99524.00;;;;5117395;28;20205;-78
2022/01/27 01:35:07;;;;;;;1.63;1.53;;;0.60;90.70;-0.40;99516.00;;;;5117349;28;20280;-78
2022/01/27 01:37:37;;;;;;;3.63;2.17;;;0.60;91.40;-0.30;99526.00;;;;5117098;28;20237;-78
2022/01/27 01:40:07;;;;;;;3.77;3.20;;;0.60;91.70;-0.30;99525.00;;;;5117133;28;20327;-78
2022/01/27 01:42:36;;;;;;;1.00;1.00;;;0.60;91.00;-0.30;99507.00;;;;5117036;28;20190;-78
2022/01/27 01:45:07;;;;;;;3.77;3.00;;;0.60;90.90;-0.30;99533.00;;;;5117114;28;20277;-77
2022/01/27 01:47:33;;;;;;;2.60;2.40;;;0.60;91.00;-0.40;99518.00;;;;5116941;28;20228;-77
2022/01/27 01:50:01;;;;;;;2.43;2.33;;;0.60;90.80;-0.30;99519.00;;;;5116861;28;20218;-76
2022/01/27 01:52:29;;;;;;;3.67;3.33;;;0.60;91.30;-0.40;99508.00;;;;5116961;28;20263;-78
2022/01/27 01:54:59;;;;;;;7.90;3.93;;;0.60;91.00;-0.50;99512.00;;;;5117020;28;20198;-78
2022/01/27 01:57:25;;;;;;;5.33;1.47;;;0.50;92.00;-0.50;99500.00;;;;5116779;28;20213;-77
2022/01/27 01:59:53;;;;;;;2.83;2.57;;;0.50;91.70;-0.70;99495.00;;;;5116964;28;20194;-77
2022/01/27 02:02:19;;;;;;;2.10;2.00;;;0.40;91.70;-0.70;99440.00;;;;5116805;28;20208;-78
2022/01/27 02:04:46;;;;;;;2.70;2.30;;;0.30;92.40;-0.50;99455.00;;;;5116834;28;20189;-78
2022/01/27 02:07:29;;;;;;;1.23;1.23;;;0.40;92.40;-0.60;99442.00;;;;5116685;28;20206;-77
2022/01/27 02:10:09;;;;;;;3.30;3.10;;;0.40;92.70;-0.60;99475.00;;;;5116606;28;20217;-78
2022/01/27 02:18:08;;;;;;;2.17;1.97;;;0.40;92.20;-0.40;99472.00;;;;5116572;28;20485;-78
2022/01/27 02:20:39;;;;;;;2.53;2.33;;;0.50;91.70;-0.40;99481.00;;;;5115667;28;20205;-75
2022/01/27 02:23:07;;;;;;;1.87;1.77;;;0.50;92.10;-0.40;99471.00;;;;5116475;28;20615;-78
2022/01/27 02:25:34;;;;;;;2.07;1.93;;;0.60;90.50;-0.60;99463.00;;;;5116363;28;20232;-78
2022/01/27 02:28:01;;;;;;;3.97;2.87;;;0.50;89.80;-0.70;99457.00;;;;5116529;28;20218;-78
2022/01/27 02:30:29;;;;;;;2.73;1.73;;;0.40;90.60;-0.60;99477.00;;;;5116522;28;20217;-78
2022/01/27 02:32:56;;;;;;;1.40;1.40;;;0.40;91.30;-0.40;99481.00;;;;5116736;28;20205;-78
2022/01/27 02:35:28;;;;;;;1.67;1.60;;;0.50;91.60;-0.60;99456.00;;;;5116887;28;20202;-78
2022/01/27 02:37:56;;;;;;;2.60;2.47;;;0.40;90.70;-0.40;99468.00;;;;5117141;28;20194;-78
2022/01/27 02:40:34;;;;;;;2.23;2.13;;;0.50;90.60;-0.40;99468.00;;;;5117335;28;20313;-78
2022/01/27 02:43:02;;;;;;;3.93;3.57;;;0.50;90.40;-0.30;99475.00;;;;5116073;28;20210;-78
2022/01/27 02:45:40;;;;;;;4.67;2.37;;;0.50;90.40;-0.40;99457.00;;;;5116124;28;20185;-77
2022/01/27 02:48:06;;;;;;;2.37;1.37;;;0.50;90.80;-0.40;99466.00;;;;5116033;28;20222;-77
2022/01/27 02:50:33;;;;;;;2.60;2.40;;;0.50;90.40;-0.40;99468.00;;;;5097830;28;20557;-77
2022/01/27 02:53:02;;;;;;;1.87;1.77;;;0.50;90.60;-0.40;99472.00;;;;5115989;28;20204;-78
2022/01/27 02:55:29;;;;;;;1.47;1.40;;;0.50;90.40;-0.40;99482.00;;;;5115803;28;20202;-77
2022/01/27 02:57:58;;;;;;;2.87;2.23;;;0.50;90.70;-0.30;99490.00;;;;5115765;28;20213;-78
2022/01/27 03:00:27;;;;;;;2.40;2.30;;;0.60;90.80;-0.40;99498.00;;;;5115818;28;20517;-78
2022/01/27 03:02:53;;;;;;;2.33;1.93;;;0.50;90.60;-0.30;99502.00;;;;5097934;28;20597;-78
2022/01/27 03:05:20;;;;;;;1.37;1.33;;;0.60;90.30;-0.20;99504.00;;;;5097776;28;20293;-78
2022/01/27 03:07:48;;;;;;;1.63;1.53;;;0.60;90.70;-0.30;99507.00;;;;5115656;28;20218;-78
2022/01/27 03:10:17;;;;;;;2.40;1.87;;;0.70;90.20;-0.30;99497.00;;;;5115751;28;20218;-78
2022/01/27 03:12:45;;;;;;;2.13;2.03;;;0.60;90.10;-0.50;99495.00;;;;5115748;28;20204;-78
2022/01/27 03:15:12;;;;;;;1.53;1.43;;;0.60;90.30;-0.40;99481.00;;;;5115417;28;20205;-78
2022/01/27 03:17:38;;;;;;;4.53;2.20;;;0.50;90.40;-0.40;99497.00;;;;5115387;28;20190;-78
2022/01/27 03:20:07;;;;;;;2.73;2.50;;;0.60;90.20;-0.40;99496.00;;;;5115392;28;20220;-76
2022/01/27 03:22:33;;;;;;;0.90;0.90;;;0.60;90.40;-0.50;99484.00;;;;5097365;28;20275;-78
2022/01/27 03:25:00;;;;;;;3.60;2.20;;;0.50;90.20;-0.40;99484.00;;;;5115307;28;20218;-78
2022/01/27 03:27:28;;;;;;;4.57;3.60;;;0.50;90.30;-0.40;99488.00;;;;5115288;28;20388;-77
2022/01/27 03:29:57;;;;;;;3.60;2.73;;;0.50;91.10;-0.50;99479.00;;;;5115301;28;20244;-78
2022/01/27 03:32:25;;;;;;;5.13;1.90;;;0.50;90.10;-0.40;99474.00;;;;5115264;28;20216;-78
2022/01/27 03:34:52;;;;;;;2.13;1.97;;;0.50;91.10;-0.50;99473.00;;;;5115203;28;20241;-78
2022/01/27 03:37:18;;;;;;;1.70;1.60;;;0.50;90.10;-0.60;99472.00;;;;5115158;28;20201;-78
2022/01/27 03:39:45;;;;;;;2.00;1.90;;;0.40;90.50;-0.50;99468.00;;;;5115127;28;20198;-77
2022/01/27 03:42:11;;;;;;;4.20;3.90;;;0.50;91.00;-0.50;99471.00;;;;5115017;28;20210;-75
2022/01/27 03:44:39;;;;;;;2.13;2.03;;;0.40;90.30;-0.60;99473.00;;;;5115153;28;20253;-78
2022/01/27 03:47:06;;;;;;;3.70;2.30;;;0.40;90.40;-0.40;99466.00;;;;5115057;28;20204;-78
2022/01/27 03:49:32;;;;;;;1.77;1.67;;;0.40;90.90;-0.50;99462.00;;;;5114818;28;20229;-78
2022/01/27 03:52:01;;;;;;;2.03;1.90;;;0.50;90.30;-0.60;99441.00;;;;5115080;28;20279;-78
2022/01/27 03:54:30;;;;;;;2.93;2.73;;;0.40;90.50;-0.80;99447.00;;;;5115028;28;20235;-78
2022/01/27 03:56:57;;;;;;;2.37;2.23;;;0.30;91.20;-0.60;99457.00;;;;5115156;28;20202;-78
2022/01/27 03:59:26;;;;;;;2.77;2.07;;;0.30;91.60;-0.70;99451.00;;;;5114921;28;20201;-78
2022/01/27 04:01:56;;;;;;;3.23;3.03;;;0.40;91.20;-0.70;99444.00;;;;5114856;28;20259;-78
2022/01/27 04:04:24;;;;;;;3.17;2.97;;;0.30;91.60;-0.70;99436.00;;;;5114986;28;20194;-78
2022/01/27 04:06:52;;;;;;;1.67;1.57;;;0.30;91.80;-0.60;99427.00;;;;5114973;28;20205;-79
2022/01/27 04:09:19;;;;;;;2.10;1.90;;;0.30;91.80;-0.70;99441.00;;;;5096749;28;20558;-76
2022/01/27 04:11:47;;;;;;;3.07;2.77;;;0.30;91.70;-0.70;99431.00;;;;5114835;28;20190;-78
2022/01/27 04:14:13;;;;;;;2.60;2.40;;;0.30;92.00;-0.90;99425.00;;;;5097079;28;20229;-78
2022/01/27 04:16:43;;;;;;;2.20;2.10;;;0.20;91.70;-0.80;99418.00;;;;5114718;28;20282;-75
2022/01/27 04:19:10;;;;;;;2.33;2.17;;;0.20;92.10;-0.90;99417.00;;;;5114888;28;20233;-78
2022/01/27 04:21:37;;;;;;;4.03;3.00;;;0.20;92.30;-0.90;99416.00;;;;5114797;28;20282;-78
2022/01/27 04:24:04;;;;;;;1.60;1.60;;;0.20;91.90;-0.90;99409.00;;;;5114774;28;20205;-78
2022/01/27 04:26:37;;;;;;;3.17;2.97;;;0.10;92.30;-0.90;99423.00;;;;5114833;28;20232;-79
2022/01/27 04:29:04;;;;;;;4.33;3.37;;;0.10;92.50;-0.90;99421.00;;;;5114631;28;20217;-78
2022/01/27 04:31:33;;;;;;;3.47;2.70;;;0.20;92.70;-0.80;99426.00;;;;5114600;28;20197;-78
2022/01/27 04:34:00;;;;;;;2.10;2.00;;;0.20;92.70;-0.90;99433.00;;;;5114829;28;20217;-78
2022/01/27 04:36:30;;;;;;;3.10;2.90;;;0.20;91.70;-0.90;99424.00;;;;5114537;28;20315;-78
2022/01/27 04:39:06;;;;;;;3.33;3.00;;;0.10;91.70;-0.80;99423.00;;;;5114563;28;20198;-77
2022/01/27 04:41:39;;;;;;;4.53;3.83;;;0.20;91.70;-0.70;99436.00;;;;5114462;28;20621;-78
2022/01/27 04:44:17;;;;;;;3.50;3.10;;;0.20;91.90;-0.70;99435.00;;;;5116207;28;20284;-78
2022/01/27 04:46:49;;;;;;;3.57;2.73;;;0.20;91.60;-0.90;99439.00;;;;5118270;28;20178;-79
2022/01/27 04:49:16;;;;;;;2.57;2.33;;;0.30;91.60;-0.70;99431.00;;;;5117960;28;20233;-77
2022/01/27 04:51:45;;;;;;;2.53;2.43;;;0.30;91.90;-0.60;99416.00;;;;5117860;28;20210;-76
2022/01/27 04:54:17;;;;;;;2.77;2.57;;;0.40;91.90;-0.60;99425.00;;;;5117890;28;20280;-76
2022/01/27 04:56:46;;;;;;;3.90;3.07;;;0.40;91.50;-0.40;99435.00;;;;5118061;28;20205;-77
2022/01/27 04:59:18;;;;;;;2.17;2.07;;;0.50;91.30;-0.70;99425.00;;;;5117843;28;20621;-78
2022/01/27 05:01:51;;;;;;;1.73;1.63;;;0.40;90.30;-0.70;99425.00;;;;5117739;28;20202;-78
2022/01/27 05:04:22;;;;;;;2.83;2.63;;;0.30;91.00;-0.50;99432.00;;;;5117790;28;20198;-78
2022/01/27 05:06:50;;;;;;;2.17;1.87;;;0.40;91.00;-0.60;99429.00;;;;5117681;28;20225;-79
2022/01/27 05:09:18;;;;;;;2.63;2.37;;;0.40;90.20;-0.40;99418.00;;;;5117466;28;20325;-78
2022/01/27 05:11:50;;;;;;;4.50;3.27;;;0.50;90.20;-0.70;99411.00;;;;5117661;28;20190;-79
2022/01/27 05:14:22;;;;;;;6.73;3.50;;;0.40;89.00;-0.60;99408.00;;;;5117711;28;20321;-79
2022/01/27 05:16:48;;;;;;;2.47;2.13;;;0.40;89.50;-0.80;99400.00;;;;5117885;28;20284;-78
2022/01/27 05:19:18;;;;;;;9.70;3.03;;;0.20;90.00;-0.80;99400.00;;;;5117611;28;20224;-78
2022/01/27 05:21:47;;;;;;;4.97;3.20;;;0.20;90.30;-0.60;99391.00;;;;5099462;28;20226;-78
2022/01/27 05:24:14;;;;;;;2.47;2.30;;;0.30;90.70;-0.70;99397.00;;;;5117445;28;20209;-78
2022/01/27 05:26:41;;;;;;;2.63;2.23;;;0.30;90.40;-0.70;99391.00;;;;5117335;28;20296;-77
2022/01/27 05:29:09;;;;;;;5.00;2.73;;;0.30;90.30;-0.70;99397.00;;;;5117177;28;20241;-76
2022/01/27 05:31:36;;;;;;;6.73;2.90;;;0.20;90.50;-0.70;99393.00;;;;5117618;28;20201;-78
2022/01/27 05:34:03;;;;;;;2.97;2.77;;;0.30;90.60;-0.80;99396.00;;;;5117588;28;20638;-77
2022/01/27 05:36:33;;;;;;;4.80;2.80;;;0.20;90.50;-0.70;99401.00;;;;5117340;28;20214;-77
2022/01/27 05:39:00;;;;;;;2.93;2.77;;;0.20;90.80;-0.60;99417.00;;;;5099678;28;20200;-77
2022/01/27 05:41:27;;;;;;;2.10;2.00;;;0.40;91.20;-0.50;99414.00;;;;5117246;28;20200;-78
2022/01/27 05:43:56;;;;;;;2.37;2.27;;;0.40;90.50;-0.60;99422.00;;;;5116927;28;20306;-77
2022/01/27 05:46:25;;;;;;;2.93;2.73;;;0.40;90.00;-0.50;99421.00;;;;5117042;28;20236;-78
2022/01/27 05:48:52;;;;;;;4.47;3.80;;;0.40;90.50;-0.50;99412.00;;;;5116965;28;20244;-78
2022/01/27 05:51:20;;;;;;;3.50;2.83;;;0.50;91.10;-0.60;99418.00;;;;5117412;28;20198;-78
2022/01/27 05:53:47;;;;;;;3.50;2.80;;;0.40;90.40;-0.50;99415.00;;;;5117212;28;20298;-77
2022/01/27 05:56:14;;;;;;;4.40;4.10;;;0.40;91.20;-0.50;99421.00;;;;5116246;28;20328;-78
2022/01/27 05:58:44;;;;;;;7.30;1.47;;;0.40;90.90;-0.60;99427.00;;;;5117284;28;20198;-77
2022/01/27 06:01:11;;;;;;;7.50;3.73;;;0.40;91.70;-0.60;99431.00;;;;5117692;28;20203;-78
2022/01/27 06:03:40;;;;;;;3.00;2.80;;;0.40;91.30;-0.50;99421.00;;;;5117872;28;20293;-78
2022/01/27 06:06:07;;;;;;;2.67;2.47;;;0.40;91.50;-0.40;99416.00;;;;5120927;28;20212;-77
2022/01/27 06:08:33;;;;;;;3.07;2.80;;;0.50;90.90;-0.40;99405.00;;;;5126131;28;20222;-76
2022/01/27 06:11:00;;;;;;;3.00;2.60;;;0.40;90.80;-0.40;99427.00;;;;5125704;28;20273;-77
2022/01/27 06:13:27;;;;;;;4.30;3.70;;;0.50;90.50;-0.50;99427.00;;;;5125743;28;20710;-78
2022/01/27 06:15:56;;;;;;;8.50;3.80;;;0.50;88.90;-0.50;99419.00;;;;5125836;28;20236;-78
2022/01/27 06:18:23;;;;;;;3.83;3.50;;;0.50;89.00;-0.50;99421.00;;;;5122830;28;20201;-78
2022/01/27 06:20:52;;;;;;;6.10;2.20;;;0.40;89.60;-0.50;99430.00;;;;5127727;28;20197;-78
2022/01/27 06:23:18;;;;;;;2.77;2.43;;;0.40;89.00;-0.60;99424.00;;;;5122495;28;20296;-78
2022/01/27 06:25:47;;;;;;;3.10;2.80;;;0.40;89.10;-0.60;99418.00;;;;5116523;28;20272;-78
2022/01/27 06:28:13;;;;;;;3.80;3.47;;;0.40;89.40;-0.50;99420.00;;;;5116432;28;20367;-78
2022/01/27 06:30:40;;;;;;;2.27;2.17;;;0.40;90.00;-0.60;99424.00;;;;5116487;28;20208;-78
2022/01/27 06:33:07;;;;;;;2.43;2.33;;;0.30;89.30;-0.60;99445.00;;;;5116426;28;20648;-78
2022/01/27 06:35:34;;;;;;;5.30;3.57;;;0.30;89.80;-0.70;99446.00;;;;5099180;28;20262;-78
2022/01/27 06:38:00;;;;;;;4.43;3.53;;;0.20;90.30;-0.70;99447.00;;;;5117123;28;20255;-78
2022/01/27 06:40:27;;;;;;;5.87;2.87;;;0.20;89.30;-0.90;99447.00;;;;5117034;28;20291;-78
2022/01/27 06:42:54;;;;;;;3.70;3.40;;;0.10;89.50;-1.00;99445.00;;;;5117509;28;20617;-78
2022/01/27 06:45:21;;;;;;;4.10;3.73;;;0.00;89.60;-0.90;99452.00;;;;5117855;28;20194;-79
2022/01/27 06:47:47;;;;;;;4.47;3.27;;;0.00;90.20;-0.80;99430.00;;;;5117896;28;20590;-77
2022/01/27 06:50:14;;;;;;;3.93;2.93;;;0.10;89.60;-1.10;99437.00;;;;5113806;28;20272;-78
2022/01/27 06:52:43;;;;;;;3.30;3.03;;;0.00;89.40;-1.10;99434.00;;;;5124077;28;20198;-78
2022/01/27 06:55:12;;;;;;;3.27;3.07;;;-0.10;90.30;-1.00;99432.00;;;;5125665;28;20225;-77
2022/01/27 06:57:39;;;;;;;2.67;2.50;;;0.00;90.10;-1.10;99436.00;;;;5124423;28;20205;-78
2022/01/27 07:00:08;;;;;;;3.13;2.93;;;0.00;89.60;-0.90;99441.00;;;;5123306;28;20268;-77
2022/01/27 07:02:37;;;;;;;3.83;3.53;;;0.00;89.30;-1.00;99433.00;;;;5121961;28;20218;-78
2022/01/27 07:05:04;;;;;;;3.87;3.20;;;0.00;88.40;-1.20;99444.00;;;;5115913;28;20278;-78
2022/01/27 07:07:32;;;;;;;12.50;3.33;;;-0.10;88.90;-1.30;99446.00;;;;5115548;28;20192;-78
2022/01/27 07:09:58;;;;;;;1.37;1.37;;;-0.30;89.50;-1.30;99458.00;;;;5097785;28;20205;-77
2022/01/27 07:12:24;;;;;;;2.33;2.13;;;-0.20;89.70;-1.20;99464.00;;;;5115767;28;20236;-76
2022/01/27 07:14:53;;;;;;;3.10;2.77;;;-0.20;88.60;-1.50;99467.00;;;;5115686;28;20357;-78
2022/01/27 07:17:20;;;;;;;3.30;2.50;;;-0.40;89.80;-1.30;99464.00;;;;5115612;28;20698;-78
2022/01/27 07:19:47;;;;;;;2.10;1.90;;;-0.30;90.90;-1.40;99463.00;;;;5115595;28;20236;-77
2022/01/27 07:22:14;;;;;;;4.37;2.50;;;-0.40;90.20;-1.40;99468.00;;;;5115478;28;20253;-78
2022/01/27 07:24:41;;;;;;;1.87;1.60;;;-0.40;90.50;-1.40;99443.00;;;;5115545;28;20197;-78
2022/01/27 07:27:09;;;;;;;3.33;2.23;;;-0.40;90.40;-1.30;99460.00;;;;5115347;28;20591;-79
2022/01/27 07:29:36;;;;;;;2.20;2.07;;;-0.30;90.60;-1.30;99459.00;;;;5114974;28;20229;-79
2022/01/27 07:32:05;;;;;;;4.43;3.73;;;-0.30;91.20;-1.20;99470.00;;;;5115214;28;20535;-79
2022/01/27 07:34:32;;;;;;;5.70;2.20;;;-0.20;90.00;-1.30;99469.00;;;;5115087;28;20238;-81
2022/01/27 07:37:01;;;;;;;2.93;2.73;;;-0.30;90.40;-1.30;99475.00;;;;5115665;28;20342;-78
2022/01/27 07:39:28;;;;;;;3.90;1.67;;;-0.30;90.00;-1.40;99466.00;;;;5115226;28;20326;-76
2022/01/27 07:41:57;;;;;;;2.03;1.93;;;-0.30;90.60;-1.40;99480.00;;;;5115153;28;20232;-82
2022/01/27 07:44:26;;;;;;;3.10;2.60;;;-0.30;91.00;-1.30;99489.00;;;;5115214;28;20203;-80
2022/01/27 07:46:52;;;;;;;6.57;3.10;;;-0.20;90.40;-1.40;99487.00;;;;5115246;28;20568;-83
2022/01/27 07:49:19;;;;;;;4.37;3.97;;;-0.40;91.00;-1.40;99480.00;;;;5115483;28;20709;-81
2022/01/27 07:51:48;;;;;;;4.80;2.97;;;-0.30;91.50;-1.40;99471.00;;;;5115786;28;20519;-82
2022/01/27 07:54:16;;;;;;;3.37;3.17;;;-0.30;91.50;-1.40;99476.00;;;;5115889;28;20252;-80
2022/01/27 07:56:42;;;;;;;3.97;2.47;;;-0.40;92.20;-1.50;99473.00;;;;5115064;28;20300;-82
2022/01/27 07:59:09;;;;;;;5.27;4.23;;;-0.50;92.80;-1.40;99470.00;;;;5114788;28;20693;-85
2022/01/27 08:01:36;;;;;;;5.07;2.50;;;-0.40;92.60;-1.60;99471.00;;;;5114779;28;20663;-79
2022/01/27 08:04:03;;;;;;;4.47;3.90;;;-0.50;92.90;-1.50;99461.00;;;;5114815;28;20205;-83
2022/01/27 08:06:29;;;;;;;9.70;4.03;;;-0.50;93.70;-1.60;99450.00;;;;5115242;28;20201;-82
2022/01/27 08:08:56;;;;;;;4.50;3.57;;;-0.50;92.90;-1.60;99450.00;;;;5115332;28;20218;-81
2022/01/27 08:11:22;;;;;;;3.80;3.40;;;-0.60;93.50;-1.80;99460.00;;;;5115956;28;20197;-84
2022/01/27 08:13:49;;;;;;;3.17;2.87;;;-0.70;94.10;-1.80;99471.00;;;;5116119;28;20220;-85
2022/01/27 08:16:17;;;;;;;3.03;2.70;;;-0.70;94.70;-1.80;99452.00;;;;5114944;28;20199;-83
2022/01/27 08:18:43;;;;;;;10.17;3.47;;;-0.80;95.30;-1.70;99470.00;;;;5113925;28;20219;-82
2022/01/27 08:21:12;;;;;;;3.13;2.13;;;-0.70;95.60;-1.70;99459.00;;;;5120878;28;20284;-82
2022/01/27 08:23:41;;;;;;;9.30;5.60;;;-0.70;95.70;-1.70;99452.00;;;;5115012;28;20667;-81
2022/01/27 08:26:11;;;;;;;3.77;3.40;;;-0.70;95.00;-1.60;99471.00;;;;5114388;28;20271;-81
2022/01/27 08:28:42;;;;;;;2.33;2.20;;;-0.60;95.30;-1.60;99473.00;;;;5114437;28;20813;-79
2022/01/27 08:31:13;;;;;;;4.37;3.90;;;-0.60;94.70;-1.60;99474.00;;;;5114445;28;20216;-80
2022/01/27 08:33:41;;;;;;;3.20;3.00;;;-0.60;94.30;-1.60;99468.00;;;;5114316;28;20228;-80
2022/01/27 08:36:09;;;;;;;5.20;4.07;;;-0.60;94.50;-1.60;99465.00;;;;5114402;28;20570;-79
2022/01/27 08:38:41;;;;;;;5.10;3.83;;;-0.60;93.70;-1.60;99463.00;;;;5114476;28;20185;-78
2022/01/27 08:41:08;;;;;;;2.27;2.17;;;-0.60;93.80;-1.60;99454.00;;;;5114307;28;20217;-82
2022/01/27 08:43:35;;;;;;;3.43;3.13;;;-0.60;94.40;-1.80;99448.00;;;;5114363;28;20255;-84
2022/01/27 08:46:04;;;;;;;3.17;2.90;;;-0.70;94.70;-1.60;99449.00;;;;5114397;28;20712;-81
2022/01/27 08:48:32;;;;;;;4.53;3.90;;;-0.60;95.10;-1.70;99444.00;;;;5114201;28;20261;-81
2022/01/27 08:51:00;;;;;;;5.13;3.07;;;-0.70;94.40;-1.70;99451.00;;;;5114222;28;20253;-80
2022/01/27 08:53:30;;;;;;;2.43;2.33;;;-0.70;95.20;-1.80;99436.00;;;;5114167;28;20220;-83
2022/01/27 08:55:57;;;;;;;6.07;3.73;;;-0.70;94.60;-1.60;99425.00;;;;5114178;28;20263;-81
2022/01/27 08:58:25;;;;;;;2.47;2.30;;;-0.60;94.40;-1.50;99427.00;;;;5114027;28;20231;-80
2022/01/27 09:00:52;;;;;;;4.57;2.27;;;-0.50;93.10;-1.50;99416.00;;;;5114236;28;20227;-79
2022/01/27 09:03:21;;;;;;;4.50;3.73;;;-0.50;92.70;-1.50;99422.00;;;;5114016;28;20575;-80
2022/01/27 09:05:47;;;;;;;1.70;1.60;;;-0.40;92.70;-1.30;99423.00;;;;5096287;28;20315;-80
2022/01/27 09:08:15;;;;;;;2.13;2.03;;;-0.40;91.70;-1.40;99412.00;;;;5114231;28;20236;-79
2022/01/27 09:10:46;;;;;;;2.50;2.33;;;-0.40;92.20;-1.20;99415.00;;;;5114132;28;20293;-80
2022/01/27 09:13:15;;;;;;;2.40;2.20;;;-0.30;92.20;-1.40;99408.00;;;;5095963;28;20211;-80
2022/01/27 09:15:43;;;;;;;2.83;2.63;;;-0.30;92.00;-1.00;99408.00;;;;5113981;28;20240;-81
2022/01/27 09:18:11;;;;;;;1.63;1.63;;;-0.20;91.80;-1.20;99402.00;;;;5095926;28;20277;-81
2022/01/27 09:20:38;;;;;;;2.77;1.67;;;-0.20;91.10;-1.00;99409.00;;;;5113921;28;20240;-78
2022/01/27 09:23:12;;;;;;;3.53;2.50;;;-0.10;91.50;-0.90;99416.00;;;;5113792;28;20210;-78
2022/01/27 09:25:43;;;;;;;3.73;2.00;;;0.00;91.10;-0.80;99416.00;;;;5113792;28;20322;-78
2022/01/27 09:28:10;;;;;;;3.90;2.43;;;0.10;91.00;-0.70;99427.00;;;;5113817;28;20213;-79
2022/01/27 09:30:37;;;;;;;1.63;1.57;;;0.20;90.30;-0.60;99417.00;;;;5116188;28;20632;-77
2022/01/27 09:33:07;;;;;;;6.87;2.57;;;0.30;89.40;-0.60;99413.00;;;;5117350;28;20194;-76
2022/01/27 09:35:35;;;;;;;2.80;2.60;;;0.30;89.80;-0.50;99410.00;;;;5117151;28;20198;-77
2022/01/27 09:38:02;;;;;;;1.37;1.37;;;0.40;89.90;-0.40;99405.00;;;;5116932;28;20297;-77
2022/01/27 09:40:30;;;;;;;2.63;2.43;;;0.50;89.50;-0.40;99402.00;;;;5117103;28;20231;-75
2022/01/27 09:42:59;;;;;;;1.57;1.47;;;0.60;89.40;-0.20;99397.00;;;;5117068;28;20205;-78
2022/01/27 09:45:27;;;;;;;1.90;1.80;;;0.60;88.90;0.00;99400.00;;;;5117162;28;20823;-78
2022/01/27 09:47:55;;;;;;;2.70;2.50;;;0.80;88.60;-0.10;99399.00;;;;5117007;28;20202;-77
2022/01/27 09:50:30;;;;;;;4.03;2.53;;;0.90;88.40;-0.10;99390.00;;;;5117063;28;20225;-79
2022/01/27 09:52:56;;;;;;;2.80;2.17;;;0.80;89.10;0.10;99386.00;;;;5117090;28;20184;-78
2022/01/27 09:55:24;;;;;;;0.93;0.93;;;1.00;88.70;0.10;99386.00;;;;5116964;28;20266;-77
2022/01/27 09:57:54;;;;;;;1.87;1.43;;;1.10;87.80;0.20;99387.00;;;;5116825;28;20218;-79
2022/01/27 10:00:24;;;;;;;6.63;1.80;;;1.10;87.50;0.30;99386.00;;;;5116978;28;20254;-79
2022/01/27 10:03:09;;;;;;;1.50;1.43;;;1.20;87.00;0.30;99388.00;;;;5099227;28;20210;-78
2022/01/27 10:05:37;;;;;;;1.70;1.67;;;1.20;87.00;0.30;99370.00;;;;5099148;28;20205;-78
2022/01/27 10:08:11;;;;;;;2.63;1.60;;;1.20;86.60;0.60;99325.00;;;;5098710;28;20724;-79
2022/01/27 10:10:41;;;;;;;2.03;1.93;;;1.40;86.10;0.40;99375.00;;;;5116696;28;20654;-79
2022/01/27 10:13:10;;;;;;;1.00;1.00;;;1.30;86.60;0.30;99376.00;;;;5116661;28;20269;-76
2022/01/27 10:15:40;;;;;;;1.23;1.23;;;1.30;86.20;0.40;99372.00;;;;5116375;28;20237;-80
2022/01/27 10:18:11;;;;;;;7.33;2.90;;;1.40;86.50;0.50;99375.00;;;;5116605;28;20205;-80
2022/01/27 10:20:42;;;;;;;6.03;3.40;;;1.40;86.40;0.50;99373.00;;;;5116697;28;20284;-77
2022/01/27 10:23:15;;;;;;;7.23;2.73;;;1.50;86.00;0.50;99365.00;;;;5116468;28;20314;-77
2022/01/27 10:25:51;;;;;;;1.77;1.70;;;1.50;86.20;0.60;99379.00;;;;5116518;28;20283;-78
2022/01/27 10:28:35;;;;;;;1.33;1.33;;;1.50;86.40;0.60;99371.00;;;;5116317;28;20228;-78
2022/01/27 10:31:08;;;;;;;1.70;1.20;;;1.50;86.80;0.80;99368.00;;;;5116346;28;20190;-80
2022/01/27 10:33:51;;;;;;;2.60;1.97;;;1.60;87.20;0.90;99363.00;;;;5098436;28;20233;-81
2022/01/27 10:36:22;;;;;;;1.27;1.23;;;1.70;86.40;1.00;99371.00;;;;5116360;28;20246;-82
2022/01/27 10:38:56;;;;;;;1.57;1.47;;;1.80;86.10;0.90;99363.00;;;;5098469;28;20298;-82
2022/01/27 10:41:24;;;;;;;0.97;0.97;;;1.90;85.40;0.90;99354.00;;;;5097464;28;20256;-81
2022/01/27 10:44:05;;;;;;;0.90;0.90;;;1.80;85.80;1.10;99361.00;;;;5116163;28;20222;-81
2022/01/27 10:46:33;;;;;;;1.17;1.17;;;1.90;86.00;1.10;99363.00;;;;5116154;28;20689;-81
2022/01/27 10:49:09;;;;;;;3.53;2.37;;;1.90;85.50;0.90;99359.00;;;;5115782;28;20295;-83
2022/01/27 10:51:44;;;;;;;1.13;1.13;;;1.90;86.20;1.10;99313.00;;;;5116083;28;20277;-82
2022/01/27 10:54:19;;;;;;;3.80;2.17;;;2.00;86.20;1.20;99363.00;;;;5115926;28;20568;-82
2022/01/27 10:56:46;;;;;;;1.37;1.37;;;2.00;86.00;1.20;99326.00;;;;5098247;28;20649;-79
2022/01/27 10:59:16;;;;;;;2.30;2.20;;;2.10;85.90;1.00;99379.00;;;;5115960;28;20281;-79
2022/01/27 11:01:47;;;;;;;1.27;1.27;;;2.00;86.20;1.00;99370.00;;;;5115690;28;20554;-77
2022/01/27 11:04:16;;;;;;;1.77;1.40;;;2.00;86.70;1.20;99365.00;;;;5115956;28;20194;-81
2022/01/27 11:06:58;;;;;;;1.97;1.83;;;2.00;86.70;1.20;99363.00;;;;5115890;28;20218;-78
2022/01/27 11:09:33;;;;;;;1.27;1.27;;;2.10;86.80;1.30;99356.00;;;;5115818;28;20219;-83
2022/01/27 11:12:10;;;;;;;1.73;1.63;;;2.20;87.10;1.20;99353.00;;;;5115717;28;20205;-81
2022/01/27 11:14:37;;;;;;;4.63;2.37;;;2.20;86.50;1.50;99343.00;;;;5115756;28;20296;-81
2022/01/27 11:17:07;;;;;;;2.00;1.50;;;2.30;86.30;1.50;99338.00;;;;5115802;28;20217;-82
2022/01/27 11:19:58;;;;;;;1.90;1.80;;;2.30;86.10;1.40;99336.00;;;;5115595;28;20190;-82
2022/01/27 11:27:59;;;;;;;0.87;0.87;;;2.10;87.30;1.40;99340.00;;;;5114698;28;20231;-79
2022/01/27 11:30:36;;;;;;;1.23;1.23;;;2.20;86.70;1.40;99342.00;;;;5115616;28;20338;-79
2022/01/27 11:33:06;;;;;;;2.83;1.93;;;2.40;84.80;1.50;99345.00;;;;5115418;28;20214;-79
2022/01/27 11:35:33;;;;;;;2.23;1.70;;;2.40;85.30;1.60;99343.00;;;;5115390;28;20201;-81
2022/01/27 11:38:04;;;;;;;1.90;1.33;;;2.40;85.40;1.50;99338.00;;;;5115270;28;20213;-80